Terminal Aerodrome Forecast
Issued by NWS Miami, FL

Current Version | Previous Version | Text Only | Print | Product List | Glossary On
Versions: 1 2 3 4 5 6 7 8 9 10 11 12 13 14 15 16 17 18 19 20 21 22 23 24 25 26 27 28
000
FTUS42 KMFL 190523
TAFFLL
TAF
KFLL 190523Z 1906/2006 16008KT P6SM SCT025 BKN250
     FM191000 18010KT P6SM VCSH SCT025 BKN100
     FM191400 23010KT P6SM VCSH SCT025 BKN050
     FM191800 21010G20KT P6SM VCSH BKN035
     FM192300 28008KT P6SM FEW025 SCT250=

USA.gov is the U.S. government's official web portal to all federal, state and local government web resources and services.